createdAt,value
2018-09-10T00:48:39.883Z,3.00
2018-09-10T00:53:43.975Z,3.13
2018-09-10T00:58:47.306Z,3.50
2018-09-10T02:35:51.454Z,3.80
2018-09-10T02:40:54.787Z,3.30
2018-09-10T03:49:15.032Z,4.47
2018-09-10T03:54:18.387Z,3.60
2018-09-10T03:59:22.480Z,3.63
2018-09-10T04:33:12.018Z,3.80
2018-09-10T04:38:15.347Z,3.87
2018-09-10T04:43:18.678Z,3.97
2018-09-10T04:48:22.763Z,3.73
2018-09-10T04:53:26.090Z,4.33
2018-09-10T04:58:29.422Z,4.17
2018-09-10T05:03:33.534Z,3.97
2018-09-10T05:08:36.865Z,4.13
2018-09-10T05:13:40.194Z,4.30
2018-09-10T05:18:44.287Z,5.40
2018-09-10T05:23:47.613Z,4.83
2018-09-10T05:28:50.956Z,5.93
2018-09-10T05:33:55.065Z,5.57
2018-09-10T05:38:58.794Z,6.37
2018-09-10T05:44:02.903Z,5.27
2018-09-10T05:49:06.241Z,4.67
2018-09-10T05:54:10.335Z,5.33
2018-09-10T05:59:14.133Z,5.13
2018-09-10T06:04:17.471Z,3.73
2018-09-10T06:09:20.790Z,4.10
2018-09-10T06:14:24.115Z,4.37
2018-09-10T06:19:27.445Z,4.90
2018-09-10T06:24:31.550Z,4.20
2018-09-10T06:29:34.871Z,3.43
2018-09-10T07:03:23.942Z,3.80
2018-09-10T07:08:27.266Z,3.67
2018-09-10T07:13:31.362Z,3.00
2018-09-10T08:04:37.418Z,3.10
2018-09-10T08:09:40.815Z,3.50
2018-09-10T08:14:44.094Z,3.70
2018-09-10T09:05:48.577Z,3.77
2018-09-10T09:10:51.918Z,3.30
2018-09-10T10:01:56.277Z,3.70
2018-09-10T10:06:59.937Z,3.43
2018-09-10T10:12:03.390Z,2.80
2018-09-10T11:03:08.243Z,3.40
2018-09-10T11:08:12.346Z,3.27
2018-09-10T11:13:15.679Z,2.40
2018-09-10T12:04:22.494Z,2.80
2018-09-10T12:09:25.822Z,2.40
2018-09-10T12:14:29.924Z,2.10
2018-09-10T13:05:36.038Z,1.93
2018-09-10T13:10:39.399Z,1.87
2018-09-10T14:01:44.351Z,1.80
2018-09-10T14:06:47.677Z,1.80
2018-09-10T14:11:51.786Z,1.80
2018-09-10T14:45:54.852Z,1.50
2018-09-10T14:50:58.202Z,1.80
2018-09-10T14:56:01.544Z,1.90
2018-09-10T15:35:36.443Z,1.90
2018-09-10T15:40:39.833Z,1.90
2018-09-10T15:45:43.099Z,2.00
2018-09-10T15:50:46.433Z,2.00
2018-09-10T16:05:12.220Z,2.00
2018-09-10T16:10:15.564Z,2.10
2018-09-10T16:15:24.375Z,1.73
2018-09-10T16:20:27.706Z,2.10
2018-09-10T16:25:50.783Z,2.17
2018-09-10T16:30:54.115Z,1.90
2018-09-10T16:36:08.726Z,2.83
2018-09-10T16:41:12.121Z,2.30
2018-09-10T16:46:20.802Z,2.03
2018-09-10T16:51:24.138Z,2.47
2018-09-10T16:56:27.485Z,2.10
2018-09-10T17:01:31.805Z,2.50
2018-09-10T17:06:43.113Z,2.70
2018-09-10T17:11:46.469Z,2.30
2018-09-10T17:16:49.807Z,2.20
2018-09-10T17:21:53.136Z,2.30
2018-09-10T17:26:56.463Z,3.03
2018-09-10T17:32:00.562Z,3.00
2018-09-10T17:37:03.888Z,3.17
2018-09-10T17:42:07.215Z,2.77
2018-09-10T17:47:11.485Z,4.27
2018-09-10T17:52:14.706Z,6.30
2018-09-10T17:57:18.036Z,4.57
2018-09-10T18:02:21.371Z,4.70
2018-09-10T18:07:25.476Z,4.23
2018-09-10T18:12:28.809Z,4.40
2018-09-10T18:17:32.144Z,4.43
2018-09-10T18:22:36.246Z,3.40
2018-09-10T18:27:39.568Z,3.73
2018-09-10T18:32:42.899Z,3.93
2018-09-10T18:37:46.986Z,3.67
2018-09-10T18:42:55.658Z,3.93
2018-09-10T18:47:59.750Z,2.87
2018-09-10T18:53:03.079Z,3.40
2018-09-10T18:58:10.438Z,3.00
2018-09-10T19:03:22.710Z,3.00
2018-09-10T19:08:26.051Z,3.10
2018-09-10T19:13:30.147Z,3.80
2018-09-10T19:18:33.479Z,3.10
2018-09-10T19:23:37.209Z,3.70
2018-09-10T19:28:40.564Z,4.27
2018-09-10T19:33:43.887Z,4.30
2018-09-10T19:38:47.223Z,3.40
2018-09-10T19:43:50.549Z,2.67
2018-09-10T19:48:53.883Z,2.47
2018-09-10T19:53:57.980Z,4.23
2018-09-10T19:59:01.305Z,3.17
2018-09-10T20:04:04.636Z,2.83
2018-09-10T20:09:08.739Z,3.53
2018-09-10T20:14:12.073Z,2.13
2018-09-10T20:19:16.161Z,2.73
2018-09-10T20:24:19.503Z,2.17
2018-09-10T20:29:22.835Z,2.43
2018-09-10T20:34:26.173Z,1.73
2018-09-10T20:39:30.015Z,2.40
2018-09-10T20:44:33.816Z,2.07
2018-09-10T20:49:37.263Z,2.03
2018-09-10T20:54:40.854Z,2.43
2018-09-10T20:59:44.552Z,2.10
2018-09-10T21:04:48.647Z,2.23
2018-09-10T21:09:51.973Z,2.43
2018-09-10T21:14:55.308Z,2.37
2018-09-10T21:19:59.403Z,2.07
2018-09-10T21:25:02.765Z,1.87
2018-09-10T21:30:06.516Z,2.43
2018-09-10T21:35:09.843Z,2.27
2018-09-10T21:40:13.172Z,2.20
2018-09-10T21:45:16.652Z,2.27
2018-09-10T21:50:20.886Z,2.60
2018-09-10T21:55:24.210Z,2.57
2018-09-10T22:00:27.539Z,2.30
2018-09-10T22:05:31.022Z,2.20
2018-09-10T22:10:34.417Z,2.67
2018-09-10T22:15:38.067Z,2.00
2018-09-10T22:20:41.394Z,1.93
2018-09-10T22:25:45.108Z,2.47
2018-09-10T22:30:48.821Z,2.23
2018-09-10T22:35:52.548Z,3.00
2018-09-10T22:40:55.894Z,2.40
2018-09-10T22:46:00.004Z,2.00
2018-09-10T22:51:03.370Z,2.60
2018-09-10T22:56:07.020Z,2.10
2018-09-10T23:01:10.389Z,2.17
2018-09-10T23:06:14.046Z,1.97
2018-09-10T23:11:17.371Z,1.80
